Time;durP1;ratioP1;P1;durP2;ratioP2;P2;SDS_P1;SDS_P2;PMS_P1;PMS_P2;Temp;Humidity;BMP_temperature;BMP_pressure;BME280_temperature;BME280_humidity;BME280_pressure;Samples;Min_cycle;Max_cycle;Signal;HPM_P1;HPM_P2
2023/02/12 00:02:03;;;;;;;62.45;27.75;;;;;;;6.93;100.00;103834.91;5223499;28;20063;-75
2023/02/12 00:04:34;;;;;;;66.72;28.05;;;;;;;6.88;100.00;103836.06;5210326;28;20025;-76
2023/02/12 00:07:05;;;;;;;60.20;25.67;;;;;;;6.85;100.00;103837.06;5223534;28;20070;-76
2023/02/12 00:09:35;;;;;;;59.20;26.60;;;;;;;6.84;100.00;103840.66;5223584;28;20776;-76
2023/02/12 00:12:06;;;;;;;62.42;28.13;;;;;;;6.76;100.00;103832.13;5223600;28;20513;-75
2023/02/12 00:14:37;;;;;;;55.22;25.95;;;;;;;6.71;100.00;103836.78;5205869;28;20021;-76
2023/02/12 00:17:07;;;;;;;68.60;27.52;;;;;;;6.66;100.00;103837.00;5205201;28;20112;-75
2023/02/12 00:19:38;;;;;;;66.25;27.58;;;;;;;6.60;100.00;103833.75;5223971;28;20037;-75
2023/02/12 00:22:08;;;;;;;62.13;26.48;;;;;;;6.55;100.00;103847.28;5223553;28;20071;-75
2023/02/12 00:24:38;;;;;;;59.08;26.95;;;;;;;6.51;100.00;103844.81;5206078;28;20036;-75
2023/02/12 00:27:09;;;;;;;60.00;25.80;;;;;;;6.48;100.00;103835.16;5222948;28;20057;-75
2023/02/12 00:29:40;;;;;;;61.05;28.42;;;;;;;6.46;100.00;103837.00;5223965;28;20032;-75
2023/02/12 00:32:10;;;;;;;64.97;29.58;;;;;;;6.43;100.00;103842.50;5223788;28;20033;-76
2023/02/12 00:34:41;;;;;;;67.00;28.10;;;;;;;6.39;100.00;103841.75;5223794;28;20107;-76
2023/02/12 00:37:12;;;;;;;66.80;25.88;;;;;;;6.36;100.00;103844.53;5205447;28;20036;-75
2023/02/12 00:39:42;;;;;;;54.83;25.98;;;;;;;6.35;100.00;103845.47;5205182;28;20024;-75
2023/02/12 00:42:13;;;;;;;61.83;26.05;;;;;;;6.34;100.00;103846.41;5224054;28;20021;-76
2023/02/12 00:44:44;;;;;;;60.67;27.45;;;;;;;6.32;100.00;103836.72;5206059;28;20021;-76
2023/02/12 00:47:15;;;;;;;57.45;25.73;;;;;;;6.28;100.00;103829.81;5223606;28;20037;-75
2023/02/12 00:49:46;;;;;;;65.40;26.42;;;;;;;6.27;100.00;103836.06;5205695;28;20087;-75
2023/02/12 00:52:16;;;;;;;61.15;26.52;;;;;;;6.25;100.00;103835.28;5223191;28;20117;-76
2023/02/12 00:54:47;;;;;;;66.32;27.90;;;;;;;6.21;100.00;103835.38;5223273;28;20108;-76
2023/02/12 00:57:17;;;;;;;57.58;27.35;;;;;;;6.21;100.00;103839.84;5223391;28;20043;-75
2023/02/12 00:59:48;;;;;;;61.55;27.02;;;;;;;6.19;100.00;103828.41;5222795;28;20044;-75
2023/02/12 01:02:18;;;;;;;58.40;26.50;;;;;;;6.17;100.00;103832.91;5223344;28;20025;-76
2023/02/12 01:04:49;;;;;;;62.28;27.55;;;;;;;6.15;100.00;103834.78;5223394;28;20385;-76
2023/02/12 01:07:19;;;;;;;62.15;29.27;;;;;;;6.15;100.00;103835.66;5205271;28;20017;-76
2023/02/12 01:09:49;;;;;;;63.05;25.80;;;;;;;6.10;100.00;103842.97;5223277;28;20028;-75
2023/02/12 01:12:20;;;;;;;62.70;26.83;;;;;;;6.09;100.00;103840.38;5223099;28;20060;-76
2023/02/12 01:14:51;;;;;;;55.13;25.13;;;;;;;6.03;100.00;103833.50;5227169;28;20024;-76
2023/02/12 01:17:21;;;;;;;59.92;25.15;;;;;;;5.97;100.00;103850.63;5208509;28;20062;-75
2023/02/12 01:19:56;;;;;;;61.38;25.65;;;;;;;5.95;100.00;103846.28;5227191;28;20017;-75
2023/02/12 01:22:26;;;;;;;60.95;26.95;;;;;;;5.95;100.00;103841.81;5226867;28;20028;-75
2023/02/12 01:24:57;;;;;;;57.40;25.58;;;;;;;5.93;100.00;103838.34;5227240;28;20477;-76
2023/02/12 01:27:27;;;;;;;54.00;26.30;;;;;;;5.89;100.00;103838.50;5225882;28;20029;-75
2023/02/12 01:29:58;;;;;;;56.35;25.98;;;;;;;5.88;100.00;103845.66;5227043;28;20019;-75
2023/02/12 01:32:28;;;;;;;59.58;26.95;;;;;;;5.87;100.00;103843.03;5209256;28;20155;-76
2023/02/12 01:34:59;;;;;;;60.25;26.58;;;;;;;5.86;100.00;103836.81;5209095;28;20112;-75
2023/02/12 01:37:29;;;;;;;56.75;25.88;;;;;;;5.90;100.00;103835.78;5226400;28;20076;-75
2023/02/12 01:40:00;;;;;;;49.40;22.75;;;;;;;5.92;100.00;103833.97;5226224;28;20021;-75
2023/02/12 01:42:31;;;;;;;50.08;22.40;;;;;;;5.91;100.00;103831.31;5227617;28;20159;-76
2023/02/12 01:45:11;;;;;;;56.08;24.83;;;;;;;5.91;100.00;103836.63;5226926;28;20025;-75
2023/02/12 01:47:44;;;;;;;51.88;23.40;;;;;;;5.91;100.00;103839.31;5226349;28;20151;-75
2023/02/12 01:50:18;;;;;;;52.47;23.08;;;;;;;5.89;100.00;103836.72;5226291;28;20032;-75
2023/02/12 01:52:55;;;;;;;52.90;24.23;;;;;;;5.89;100.00;103836.72;5225894;28;20044;-76
2023/02/12 01:55:26;;;;;;;47.42;22.15;;;;;;;5.86;100.00;103836.81;5208921;28;20045;-76
2023/02/12 01:57:57;;;;;;;56.17;24.02;;;;;;;5.83;100.00;103836.97;5225755;28;20056;-76
2023/02/12 02:00:27;;;;;;;58.28;24.42;;;;;;;5.79;100.00;103832.69;5226077;28;20033;-76
2023/02/12 02:03:00;;;;;;;52.03;22.63;;;;;;;5.81;100.00;103833.47;5208244;28;20104;-75
2023/02/12 02:05:47;;;;;;;52.28;23.15;;;;;;;5.82;100.00;103831.69;5208903;28;20025;-76
2023/02/12 02:08:17;;;;;;;51.63;22.55;;;;;;;5.82;100.00;103827.22;5214580;28;20029;-75
2023/02/12 02:10:48;;;;;;;53.72;22.83;;;;;;;5.87;100.00;103829.69;5207817;28;20032;-75
2023/02/12 02:16:23;;;;;;;51.95;22.98;;;;;;;5.82;100.00;103827.22;5213979;28;20029;-75
2023/02/12 02:19:01;;;;;;;50.38;22.38;;;;;;;5.81;100.00;103822.81;5225890;28;20076;-75
2023/02/12 02:21:50;;;;;;;48.05;21.77;;;;;;;5.80;100.00;103820.22;5208284;28;20037;-75
2023/02/12 02:24:45;;;;;;;47.15;22.17;;;;;;;5.78;100.00;103830.97;5213129;28;20408;-75
2023/02/12 02:27:23;;;;;;;51.70;22.70;;;;;;;5.79;100.00;103826.50;5207565;28;20033;-75
2023/02/12 02:30:11;;;;;;;52.70;23.77;;;;;;;5.79;100.00;103824.69;5225316;28;20024;-75
2023/02/12 02:32:51;;;;;;;52.88;21.77;;;;;;;5.80;100.00;103822.91;5208106;28;20536;-76
2023/02/12 02:35:52;;;;;;;46.00;20.98;;;;;;;5.81;100.00;103822.81;5225390;28;20025;-75
2023/02/12 02:38:32;;;;;;;48.58;21.88;;;;;;;5.75;100.00;103828.41;5224490;28;20343;-75
2023/02/12 02:41:13;;;;;;;51.47;21.38;;;;;;;5.67;100.00;103815.41;5225478;28;20105;-75
2023/02/12 02:44:01;;;;;;;48.50;22.08;;;;;;;5.62;100.00;103816.50;5225421;28;20029;-75
2023/02/12 02:46:37;;;;;;;56.65;23.23;;;;;;;5.60;100.00;103823.69;5225021;28;20508;-76
2023/02/12 02:49:16;;;;;;;47.88;22.30;;;;;;;5.58;100.00;103813.13;5225311;28;20474;-75
2023/02/12 02:51:53;;;;;;;52.95;21.92;;;;;;;5.57;100.00;103813.16;5194469;28;20036;-75
2023/02/12 02:54:31;;;;;;;52.63;23.27;;;;;;;5.59;100.00;103821.97;5224797;28;20124;-75
2023/02/12 02:57:10;;;;;;;49.60;20.88;;;;;;;5.60;100.00;103827.22;5224698;28;20021;-76
2023/02/12 02:59:54;;;;;;;51.53;22.83;;;;;;;5.60;100.00;103821.91;5207927;28;20106;-75
2023/02/12 03:02:29;;;;;;;51.63;23.23;;;;;;;5.60;100.00;103823.69;5224928;28;20021;-75
2023/02/12 03:05:18;;;;;;;49.60;21.02;;;;;;;5.60;100.00;103819.25;5225058;28;20531;-75
2023/02/12 03:07:54;;;;;;;43.90;19.92;;;;;;;5.59;100.00;103821.97;5224226;28;20025;-75
2023/02/12 03:10:31;;;;;;;45.55;21.10;;;;;;;5.58;100.00;103825.56;5224505;28;20024;-75
2023/02/12 03:13:09;;;;;;;43.92;20.48;;;;;;;5.53;100.00;103823.09;5206827;28;20025;-75
2023/02/12 03:15:44;;;;;;;48.60;21.45;;;;;;;5.52;100.00;103821.31;5224971;28;20106;-75
2023/02/12 03:18:39;;;;;;;56.73;22.33;;;;;;;5.51;100.00;103821.41;5224270;28;20039;-75
2023/02/12 03:21:15;;;;;;;55.03;21.30;;;;;;;5.49;100.00;103823.28;5212344;28;20090;-76
2023/02/12 03:23:53;;;;;;;52.50;21.45;;;;;;;5.47;100.00;103828.63;5224428;28;20048;-75
2023/02/12 03:26:36;;;;;;;54.65;21.83;;;;;;;5.46;100.00;103822.44;5205996;28;20493;-75
2023/02/12 03:29:07;;;;;;;50.65;21.67;;;;;;;5.49;100.00;103805.50;5211599;28;20024;-75
2023/02/12 03:31:51;;;;;;;47.83;21.10;;;;;;;5.52;100.00;103816.00;5224436;28;20440;-76
2023/02/12 03:34:41;;;;;;;51.50;21.88;;;;;;;5.61;100.00;103801.47;5224388;28;20031;-75
2023/02/12 03:37:20;;;;;;;49.95;22.02;;;;;;;5.62;100.00;103808.50;5205456;28;20024;-75
2023/02/12 03:40:16;;;;;;;44.97;19.10;;;;;;;5.59;100.00;103801.53;5224374;28;20151;-75
2023/02/12 03:42:57;;;;;;;48.42;22.67;;;;;;;5.57;100.00;103799.84;5224490;28;20432;-75
2023/02/12 03:45:55;;;;;;;54.92;22.38;;;;;;;5.56;100.00;103801.63;5206883;28;20029;-75
2023/02/12 03:48:46;;;;;;;58.35;22.73;;;;;;;5.51;100.00;103802.75;5223718;28;20048;-75
2023/02/12 03:51:37;;;;;;;49.53;22.30;;;;;;;5.51;100.00;103808.94;5223537;28;20025;-75
2023/02/12 03:54:11;;;;;;;52.28;22.35;;;;;;;5.50;100.00;103809.88;5224304;28;20504;-75
2023/02/12 03:56:51;;;;;;;48.17;22.13;;;;;;;5.48;100.00;103806.44;5210961;28;20102;-75
2023/02/12 03:59:23;;;;;;;52.88;22.42;;;;;;;5.50;100.00;103806.34;5205811;28;20028;-75
2023/02/12 04:01:56;;;;;;;49.47;21.70;;;;;;;5.47;100.00;103802.00;5223849;28;20052;-75
2023/02/12 04:04:28;;;;;;;48.33;21.25;;;;;;;5.52;100.00;103804.47;5223472;28;20079;-75
2023/02/12 04:06:59;;;;;;;48.35;21.80;;;;;;;5.55;100.00;103802.56;5205995;28;20035;-75
2023/02/12 04:09:30;;;;;;;47.38;21.17;;;;;;;5.64;100.00;103807.53;5224208;28;20045;-75
2023/02/12 04:12:27;;;;;;;52.55;21.52;;;;;;;5.66;100.00;103802.13;5223932;28;20036;-76
2023/02/12 04:15:35;;;;;;;46.40;20.27;;;;;;;5.64;100.00;103809.34;5199012;28;20025;-75
2023/02/12 04:18:22;;;;;;;42.60;19.95;;;;;;;5.59;100.00;103804.19;5212987;28;20052;-75
2023/02/12 04:21:20;;;;;;;44.83;19.88;;;;;;;5.55;100.00;103815.03;5205912;28;20056;-75
2023/02/12 04:24:04;;;;;;;44.15;19.40;;;;;;;5.49;100.00;103807.28;5223574;28;20492;-75
2023/02/12 04:26:55;;;;;;;40.95;18.48;;;;;;;5.47;100.00;103817.97;5223596;28;20032;-75
2023/02/12 04:29:47;;;;;;;39.75;18.23;;;;;;;5.44;100.00;103821.66;5213027;28;20033;-76
2023/02/12 04:32:28;;;;;;;40.83;18.98;;;;;;;5.45;100.00;103830.50;5223764;28;20057;-75
2023/02/12 04:34:59;;;;;;;45.45;20.65;;;;;;;5.46;100.00;103824.25;5205719;28;20028;-75
2023/02/12 04:37:50;;;;;;;39.35;19.20;;;;;;;5.50;100.00;103825.84;5223182;28;20032;-75
2023/02/12 04:40:21;;;;;;;42.83;19.15;;;;;;;5.51;100.00;103837.38;5223432;28;20021;-75
2023/02/12 04:42:53;;;;;;;42.72;18.92;;;;;;;5.51;100.00;103834.72;5223984;28;20049;-75
2023/02/12 04:45:28;;;;;;;43.83;18.27;;;;;;;5.50;100.00;103835.66;5223290;28;20029;-75
2023/02/12 04:47:59;;;;;;;39.03;17.92;;;;;;;5.49;100.00;103837.44;5224099;28;20025;-75
2023/02/12 04:50:39;;;;;;;44.33;18.70;;;;;;;5.50;100.00;103839.16;5227481;28;20040;-76
2023/02/12 04:53:09;;;;;;;39.70;18.65;;;;;;;5.50;100.00;103836.50;5209946;28;20028;-75
2023/02/12 04:55:40;;;;;;;48.10;18.02;;;;;;;5.55;100.00;103839.00;5209877;28;20071;-75
2023/02/12 04:58:10;;;;;;;41.65;18.73;;;;;;;5.62;100.00;103832.47;5226497;28;20025;-75
2023/02/12 05:00:41;;;;;;;39.55;18.50;;;;;;;5.66;100.00;103828.78;5227279;28;20019;-76
2023/02/12 05:03:11;;;;;;;45.17;18.88;;;;;;;5.70;100.00;103835.72;5220042;28;20489;-75
2023/02/12 05:05:42;;;;;;;44.45;19.15;;;;;;;5.69;100.00;103829.53;5221309;28;20497;-75
2023/02/12 05:08:12;;;;;;;43.13;19.00;;;;;;;5.73;100.00;103832.94;5226856;28;20028;-75
2023/02/12 05:10:42;;;;;;;39.47;18.27;;;;;;;5.74;100.00;103836.47;5226516;28;20036;-75
2023/02/12 05:13:13;;;;;;;39.60;17.35;;;;;;;5.70;100.00;103830.38;5227400;28;20673;-75
2023/02/12 05:15:43;;;;;;;42.53;19.55;;;;;;;5.66;100.00;103829.63;5227214;28;20112;-75
2023/02/12 05:18:14;;;;;;;38.63;18.00;;;;;;;5.62;100.00;103825.38;5226755;28;20033;-75
2023/02/12 05:20:44;;;;;;;45.95;19.80;;;;;;;5.58;100.00;103829.09;5226884;28;20104;-75
2023/02/12 05:23:15;;;;;;;45.55;19.90;;;;;;;5.53;100.00;103828.41;5227199;28;20120;-75
2023/02/12 05:25:45;;;;;;;43.72;19.35;;;;;;;5.53;100.00;103832.88;5226985;28;20668;-75
2023/02/12 05:28:15;;;;;;;38.05;19.13;;;;;;;5.49;100.00;103836.59;5208824;28;20028;-75
2023/02/12 05:30:46;;;;;;;47.55;20.67;;;;;;;5.46;100.00;103822.44;5195946;28;20017;-75
2023/02/12 05:33:16;;;;;;;44.30;19.75;;;;;;;5.45;100.00;103820.72;5226464;28;20048;-75
2023/02/12 05:35:47;;;;;;;45.97;19.98;;;;;;;5.43;100.00;103827.03;5226643;28;20095;-76
2023/02/12 05:38:17;;;;;;;40.22;18.73;;;;;;;5.41;100.00;103821.75;5226088;28;20112;-75
2023/02/12 05:40:48;;;;;;;46.53;20.20;;;;;;;5.39;100.00;103828.94;5208808;28;20432;-75
2023/02/12 05:43:18;;;;;;;42.10;18.02;;;;;;;5.40;100.00;103833.34;5226517;28;20041;-75
2023/02/12 05:45:49;;;;;;;39.42;18.15;;;;;;;5.41;100.00;103831.53;5226444;28;20032;-75
2023/02/12 05:48:19;;;;;;;44.10;20.83;;;;;;;5.43;100.00;103835.03;5208016;28;20029;-75
2023/02/12 05:50:50;;;;;;;37.17;17.67;;;;;;;5.41;100.00;103823.56;5226220;28;20028;-75
2023/02/12 05:53:20;;;;;;;41.17;18.58;;;;;;;5.41;100.00;103823.56;5226389;28;20025;-75
2023/02/12 05:55:51;;;;;;;38.15;17.55;;;;;;;5.40;100.00;103827.16;5208660;28;20150;-75
2023/02/12 05:58:21;;;;;;;36.63;16.52;;;;;;;5.41;100.00;103829.75;5224571;28;20021;-75
2023/02/12 06:00:51;;;;;;;38.60;17.67;;;;;;;5.49;100.00;103834.78;5208045;28;20033;-75
2023/02/12 06:03:22;;;;;;;32.00;15.98;;;;;;;5.55;100.00;103834.53;5226160;28;20036;-75
2023/02/12 06:05:52;;;;;;;36.05;15.95;;;;;;;5.66;100.00;103837.63;5225987;28;20028;-75
2023/02/12 06:08:23;;;;;;;31.13;14.57;;;;;;;5.76;100.00;103838.13;5207832;28;20445;-75
2023/02/12 06:10:53;;;;;;;31.92;14.88;;;;;;;5.79;100.00;103835.34;5225188;28;20401;-75
2023/02/12 06:13:24;;;;;;;33.65;15.77;;;;;;;5.77;100.00;103834.53;5226177;28;20032;-76
2023/02/12 06:15:55;;;;;;;35.35;15.77;;;;;;;5.73;100.00;103835.59;5225936;28;20028;-75
2023/02/12 06:18:26;;;;;;;38.47;16.00;;;;;;;5.67;100.00;103838.50;5225733;28;20037;-75
2023/02/12 06:20:56;;;;;;;37.90;15.63;;;;;;;5.63;100.00;103836.91;5225804;28;20028;-76
2023/02/12 06:23:27;;;;;;;34.67;16.35;;;;;;;5.62;100.00;103843.13;5225323;28;20025;-75
2023/02/12 06:25:58;;;;;;;31.25;15.13;;;;;;;5.60;100.00;103845.00;5225581;28;20107;-76
2023/02/12 06:28:28;;;;;;;29.85;15.40;;;;;;;5.59;100.00;103843.28;5225519;28;20112;-75
2023/02/12 06:30:59;;;;;;;33.58;14.82;;;;;;;5.57;100.00;103850.44;5225464;28;20029;-75
2023/02/12 06:33:30;;;;;;;33.40;15.38;;;;;;;5.57;100.00;103851.34;5219383;28;20056;-75
2023/02/12 06:36:03;;;;;;;39.40;16.63;;;;;;;5.54;100.00;103850.59;5205518;28;20072;-75
2023/02/12 06:38:34;;;;;;;34.45;15.23;;;;;;;5.46;100.00;103850.88;5199472;28;20033;-76
2023/02/12 06:41:04;;;;;;;32.70;15.55;;;;;;;5.42;100.00;103851.91;5214961;28;20311;-76
2023/02/12 06:43:35;;;;;;;33.28;15.07;;;;;;;5.37;100.00;103857.44;5223857;28;20098;-76
2023/02/12 06:46:06;;;;;;;32.92;15.90;;;;;;;5.37;100.00;103857.44;5224322;28;20017;-76
2023/02/12 06:48:36;;;;;;;31.33;15.32;;;;;;;5.36;100.00;103854.81;5223484;28;20035;-76
2023/02/12 06:51:12;;;;;;;38.35;16.05;;;;;;;5.34;100.00;103852.22;5226074;28;20408;-75
2023/02/12 06:53:43;;;;;;;34.53;15.98;;;;;;;5.36;100.00;103861.00;5223939;28;20420;-75
2023/02/12 06:56:14;;;;;;;33.85;15.07;;;;;;;5.43;100.00;103865.19;5223942;28;20039;-76
2023/02/12 06:58:46;;;;;;;34.63;16.02;;;;;;;5.48;100.00;103872.13;5205153;28;20444;-75
2023/02/12 07:01:21;;;;;;;30.58;14.18;;;;;;;5.60;100.00;103859.19;5205356;28;20053;-75
2023/02/12 07:04:04;;;;;;;34.72;15.57;;;;;;;5.62;100.00;103867.09;5224195;28;20035;-76
2023/02/12 07:06:35;;;;;;;35.83;16.63;;;;;;;5.46;100.00;103873.03;5193526;28;20021;-75
2023/02/12 07:09:06;;;;;;;35.10;15.93;;;;;;;5.42;100.00;103873.22;5205295;28;20035;-75
2023/02/12 07:11:37;;;;;;;32.92;15.63;;;;;;;5.41;100.00;103874.13;5222280;28;20032;-76
2023/02/12 07:14:13;;;;;;;83.40;33.47;;;;;;;5.42;100.00;103879.44;5223121;28;20039;-75
2023/02/12 07:16:43;;;;;;;70.82;28.00;;;;;;;5.45;100.00;103875.75;5205391;28;20024;-75
2023/02/12 07:19:15;;;;;;;34.42;16.95;;;;;;;5.55;100.00;103879.81;5223349;28;20032;-75
2023/02/12 07:21:45;;;;;;;45.05;19.38;;;;;;;5.55;100.00;103881.59;5222806;28;20025;-75
2023/02/12 07:24:17;;;;;;;37.22;17.02;;;;;;;5.50;100.00;103884.44;5223295;28;20068;-76
2023/02/12 07:26:47;;;;;;;55.42;29.65;;;;;;;5.49;100.00;103881.84;5205366;28;20046;-75
2023/02/12 07:29:18;;;;;;;33.38;16.70;;;;;;;5.57;100.00;103888.63;5223583;28;20380;-75
2023/02/12 07:31:48;;;;;;;37.42;15.88;;;;;;;5.65;100.00;103890.97;5222927;28;20021;-76
2023/02/12 07:34:18;;;;;;;36.90;16.95;;;;;;;5.67;100.00;103876.69;5222449;28;20021;-75
2023/02/12 07:36:49;;;;;;;31.83;15.82;;;;;;;5.64;100.00;103883.91;5222842;28;20104;-75
2023/02/12 07:39:19;;;;;;;38.58;16.20;;;;;;;5.62;100.00;103880.44;5223261;28;20061;-75
2023/02/12 07:41:50;;;;;;;45.83;19.35;;;;;;;5.60;100.00;103882.28;5222698;28;20442;-76
2023/02/12 07:44:21;;;;;;;38.08;16.80;;;;;;;5.71;100.00;103880.06;5223153;28;20021;-76
2023/02/12 07:46:51;;;;;;;35.30;15.80;;;;;;;5.71;100.00;103890.72;5222151;28;20124;-76
2023/02/12 07:49:22;;;;;;;37.95;16.73;;;;;;;5.68;100.00;103883.75;5223199;28;20442;-75
2023/02/12 07:51:55;;;;;;;36.67;18.13;;;;;;;5.66;100.00;103890.91;5222505;28;20036;-76
2023/02/12 07:54:26;;;;;;;34.75;15.77;;;;;;;5.65;100.00;103890.97;5205236;28;20120;-76
2023/02/12 07:56:57;;;;;;;33.15;16.77;;;;;;;5.64;100.00;103895.44;5222872;28;20111;-75
2023/02/12 07:59:27;;;;;;;35.25;16.70;;;;;;;5.72;100.00;103893.34;5204310;28;20032;-75
2023/02/12 08:01:59;;;;;;;34.50;15.52;;;;;;;5.84;100.00;103901.78;5222478;28;20016;-75
2023/02/12 08:04:30;;;;;;;37.10;16.27;;;;;;;5.79;100.00;103893.09;5222761;28;20098;-76
2023/02/12 08:07:01;;;;;;;36.78;15.93;;;;;;;5.76;100.00;103898.53;5222628;28;20033;-76
2023/02/12 08:09:32;;;;;;;39.72;17.33;;;;;;;5.75;100.00;103895.00;5221859;28;20052;-75
2023/02/12 08:12:02;;;;;;;36.50;18.10;;;;;;;5.75;100.00;103891.47;5222114;28;20083;-76
2023/02/12 08:14:33;;;;;;;38.28;17.52;;;;;;;5.74;100.00;103895.94;5222649;28;20033;-75
2023/02/12 08:17:03;;;;;;;32.72;15.82;;;;;;;5.74;100.00;103890.63;5222177;28;20025;-76
2023/02/12 08:19:34;;;;;;;36.90;16.05;;;;;;;5.76;100.00;103899.41;5222728;28;20494;-76
2023/02/12 08:22:05;;;;;;;34.65;14.55;;;;;;;5.77;100.00;103900.25;5223204;28;20016;-75
2023/02/12 08:24:36;;;;;;;38.65;16.58;;;;;;;5.80;100.00;103892.16;5226748;28;20469;-76
2023/02/12 08:27:06;;;;;;;38.03;17.00;;;;;;;5.83;100.00;103898.25;5208565;28;20406;-75
2023/02/12 08:29:37;;;;;;;36.40;16.50;;;;;;;5.84;100.00;103899.13;5226274;28;20021;-75
2023/02/12 08:32:12;;;;;;;35.92;16.95;;;;;;;5.84;100.00;103897.31;5208663;28;20116;-76
2023/02/12 08:34:43;;;;;;;;;;;;;;;5.86;100.00;103902.56;5208952;28;20032;-76
2023/02/12 08:37:13;;;;;;;41.75;17.25;;;;;;;5.89;100.00;103899.78;5226266;28;19909;-76
2023/02/12 08:39:44;;;;;;;33.05;15.60;;;;;;;5.92;100.00;103900.59;5226388;28;20054;-77
2023/02/12 08:42:14;;;;;;;32.35;15.50;;;;;;;5.94;100.00;103909.38;5226535;28;20025;-76
2023/02/12 08:44:45;;;;;;;34.35;15.40;;;;;;;5.96;100.00;103909.31;5226628;28;20032;-75
2023/02/12 08:47:15;;;;;;;39.33;17.30;;;;;;;5.96;100.00;103912.84;5225850;28;20124;-76
2023/02/12 08:49:46;;;;;;;44.10;18.88;;;;;;;5.95;100.00;103913.75;5226064;28;20032;-75
2023/02/12 08:52:18;;;;;;;43.83;18.90;;;;;;;5.94;100.00;103913.84;5226266;28;20075;-76
2023/02/12 08:54:52;;;;;;;44.13;18.30;;;;;;;5.94;100.00;103917.38;5226128;28;20021;-76
2023/02/12 08:57:22;;;;;;;40.40;17.60;;;;;;;6.00;100.00;103912.72;5225666;28;20029;-75
2023/02/12 08:59:53;;;;;;;43.63;19.05;;;;;;;6.03;100.00;103913.47;5225390;28;20051;-76
2023/02/12 09:02:23;;;;;;;38.60;18.02;;;;;;;6.10;100.00;103914.94;5225035;28;20477;-76
2023/02/12 09:04:54;;;;;;;45.83;21.13;;;;;;;6.13;100.00;103920.16;5213784;28;20044;-76
2023/02/12 09:07:24;;;;;;;42.88;19.23;;;;;;;6.17;100.00;103920.88;5225475;28;20052;-75
2023/02/12 09:09:55;;;;;;;40.30;18.70;;;;;;;6.20;100.00;103913.63;5225465;28;20018;-76
2023/02/12 09:12:25;;;;;;;41.78;18.23;;;;;;;6.24;100.00;103906.41;5225560;28;20037;-76
2023/02/12 09:14:56;;;;;;;40.67;18.77;;;;;;;6.31;100.00;103913.19;5225711;28;20048;-75
2023/02/12 09:17:27;;;;;;;40.35;18.65;;;;;;;6.34;100.00;103913.06;5225544;28;20126;-76
2023/02/12 09:20:00;;;;;;;38.22;18.50;;;;;;;6.38;100.00;103909.34;5225525;28;20017;-76
2023/02/12 09:22:30;;;;;;;40.28;18.55;;;;;;;6.41;100.00;103905.69;5207342;28;20554;-76
2023/02/12 09:25:01;;;;;;;39.45;18.77;;;;;;;6.46;100.00;103912.56;5225499;28;20078;-76
2023/02/12 09:27:31;;;;;;;41.28;18.90;;;;;;;6.51;100.00;103908.81;5225145;28;20025;-76
2023/02/12 09:30:02;;;;;;;38.78;18.48;;;;;;;6.53;100.00;103909.66;5225072;28;20393;-76
2023/02/12 09:32:33;;;;;;;43.08;17.40;;;;;;;6.56;100.00;103907.69;5208115;28;20409;-76
2023/02/12 09:35:04;;;;;;;40.85;18.67;;;;;;;6.61;100.00;103920.84;5224139;28;20037;-76
2023/02/12 09:37:34;;;;;;;37.67;18.67;;;;;;;6.62;100.00;103917.22;5225080;28;20029;-76
2023/02/12 09:40:06;;;;;;;36.88;19.27;;;;;;;6.65;100.00;103923.31;5225078;28;20363;-76
2023/02/12 09:43:02;;;;;;;42.85;19.17;;;;;;;6.63;100.00;103922.53;5191186;28;20123;-76
2023/02/12 09:45:36;;;;;;;;;;;;;;;6.66;100.00;103918.84;5187249;28;20053;-75
2023/02/12 09:48:25;;;;;;;44.55;19.05;;;;;;;6.69;100.00;103929.38;5221270;28;19912;-76
2023/02/12 09:50:59;;;;;;;48.55;19.52;;;;;;;6.72;100.00;103923.91;5224517;28;20028;-76
2023/02/12 09:53:31;;;;;;;36.60;17.67;;;;;;;6.73;100.00;103931.88;5212348;28;20051;-76
2023/02/12 09:56:01;;;;;;;42.45;19.23;;;;;;;6.71;100.00;103943.53;5224582;28;20032;-76
2023/02/12 09:58:39;;;;;;;43.45;19.40;;;;;;;6.68;100.00;103933.88;5224848;28;20513;-76
2023/02/12 10:01:26;;;;;;;39.85;17.65;;;;;;;6.71;100.00;103938.19;5224303;28;20409;-76
2023/02/12 10:03:57;;;;;;;42.22;19.52;;;;;;;6.74;100.00;103930.06;5224896;28;20167;-76
2023/02/12 10:06:34;;;;;;;41.00;20.23;;;;;;;6.79;100.00;103933.41;5206535;28;20104;-76
2023/02/12 10:09:13;;;;;;;40.05;18.95;;;;;;;6.83;100.00;103939.44;5225092;28;20666;-76
2023/02/12 10:12:21;;;;;;;45.42;19.58;;;;;;;6.86;100.00;103937.53;5206878;28;20033;-76
2023/02/12 10:15:18;;;;;;;41.45;20.25;;;;;;;6.93;100.00;103943.47;5206463;28;20457;-76
2023/02/12 10:18:05;;;;;;;47.53;20.63;;;;;;;6.98;100.00;103939.66;5225027;28;20032;-76
2023/02/12 10:20:44;;;;;;;43.05;20.08;;;;;;;6.97;100.00;103947.72;5224420;28;20083;-76
2023/02/12 10:23:32;;;;;;;45.88;20.88;;;;;;;6.97;100.00;103945.06;5224747;28;20753;-76
2023/02/12 10:26:24;;;;;;;47.50;21.48;;;;;;;7.03;100.00;103943.91;5212357;28;20083;-76
2023/02/12 10:29:00;;;;;;;40.75;20.38;;;;;;;7.08;100.00;103947.25;5224832;28;20025;-76
2023/02/12 10:31:36;;;;;;;49.00;20.33;;;;;;;7.11;100.00;103947.13;5206121;28;20032;-76
2023/02/12 10:34:16;;;;;;;41.92;19.70;;;;;;;7.10;100.00;103948.94;5211592;28;20033;-76
2023/02/12 10:36:49;;;;;;;42.50;20.10;;;;;;;7.13;100.00;103939.91;5224121;28;20107;-76
2023/02/12 10:39:25;;;;;;;46.83;19.35;;;;;;;7.15;100.00;103935.38;5206733;28;20035;-76
2023/02/12 10:42:15;;;;;;;40.13;19.63;;;;;;;7.19;100.00;103940.50;5206060;28;20037;-76
2023/02/12 10:44:45;;;;;;;46.90;20.90;;;;;;;7.25;100.00;103940.22;5206760;28;20032;-76
2023/02/12 10:47:20;;;;;;;51.80;20.63;;;;;;;7.39;100.00;103936.09;5224288;28;20027;-76
2023/02/12 10:49:56;;;;;;;45.38;20.25;;;;;;;7.41;100.00;103935.06;5224255;28;20068;-76
2023/02/12 10:52:47;;;;;;;47.70;20.88;;;;;;;7.45;100.00;103936.66;5223898;28;20056;-76
2023/02/12 10:55:31;;;;;;;42.40;19.27;;;;;;;7.48;100.00;103936.53;5211326;28;20032;-76
2023/02/12 10:58:04;;;;;;;41.85;20.83;;;;;;;7.54;100.00;103932.69;5223435;28;20389;-76
2023/02/12 11:00:37;;;;;;;43.97;20.67;;;;;;;7.59;100.00;103927.16;5205950;28;20389;-76
2023/02/12 11:03:19;;;;;;;38.33;18.70;;;;;;;7.64;100.00;103925.13;5216919;28;20082;-76
2023/02/12 11:05:52;;;;;;;42.22;18.77;;;;;;;7.71;100.00;103926.56;5219119;28;20033;-76
2023/02/12 11:08:42;;;;;;;36.03;17.80;;;;;;;7.84;100.00;103911.69;5205986;28;20028;-76
2023/02/12 11:11:19;;;;;;;34.88;17.85;;;;;;;7.88;100.00;103910.59;5223119;28;20061;-76
2023/02/12 11:14:27;;;;;;;37.03;18.08;;;;;;;7.79;100.00;103909.22;5223561;28;20593;-75
2023/02/12 11:17:01;;;;;;;35.63;17.75;;;;;;;7.77;100.00;103910.22;5205521;28;20025;-76
2023/02/12 11:19:33;;;;;;;36.55;18.30;;;;;;;7.82;100.00;103908.19;5223540;28;20071;-76
2023/02/12 11:22:10;;;;;;;40.35;19.40;;;;;;;7.82;100.00;103905.53;5205575;28;20040;-76
2023/02/12 11:24:41;;;;;;;38.78;18.48;;;;;;;7.81;100.00;103911.81;5224018;28;20401;-76
2023/02/12 11:27:28;;;;;;;43.60;18.88;;;;;;;7.79;100.00;103898.53;5223072;28;20029;-75
2023/02/12 11:30:17;;;;;;;37.95;18.15;;;;;;;7.79;100.00;103908.34;5223116;28;20456;-76
2023/02/12 11:32:50;;;;;;;51.70;19.00;;;;;;;7.81;100.00;103909.13;5223731;28;20170;-76
2023/02/12 11:35:25;;;;;;;36.60;17.80;;;;;;;7.83;100.00;103903.72;5223859;28;20029;-76
2023/02/12 11:37:58;;;;;;;37.17;18.92;;;;;;;7.87;100.00;103899.94;5222294;28;20051;-76
2023/02/12 11:40:32;;;;;;;38.60;18.88;;;;;;;7.90;100.00;103898.00;5205590;28;20031;-76
2023/02/12 11:43:06;;;;;;;39.25;19.35;;;;;;;7.94;100.00;103898.72;5223581;28;20489;-76
2023/02/12 11:45:43;;;;;;;36.85;18.95;;;;;;;7.97;100.00;103899.44;5223919;28;20033;-76
2023/02/12 11:48:34;;;;;;;39.67;19.02;;;;;;;8.02;100.00;103897.41;5223061;28;20021;-76